Time;durP1;ratioP1;P1;durP2;ratioP2;P2;SDS_P1;SDS_P2;PMS_P1;PMS_P2;Temp;Humidity;BMP_temperature;BMP_pressure;BME280_temperature;BME280_humidity;BME280_pressure;Samples;Min_cycle;Max_cycle;Signal;HPM_P1;HPM_P2
2023/02/01 00:00:54;;;;;;;0.10;0.10;;;;;;;11.24;100.00;100407.19;7392316;19;20014;-61
2023/02/01 00:03:20;;;;;;;3.25;0.70;;;;;;;10.61;100.00;100405.91;7393061;19;20108;-61
2023/02/01 00:05:56;;;;;;;0.30;0.20;;;;;;;10.82;100.00;100403.47;7389958;19;20026;-61
2023/02/01 00:08:23;;;;;;;4.25;0.80;;;;;;;17.75;63.74;100399.09;7389031;19;20015;-61
2023/02/01 00:11:01;;;;;;;3.25;0.93;;;;;;;10.25;100.00;100416.22;7388951;19;20014;-61
2023/02/01 00:13:32;;;;;;;2.05;0.65;;;;;;;14.53;72.51;100400.13;7389336;19;20010;-61
2023/02/01 00:16:16;;;;;;;5.07;1.15;;;;;;;9.80;100.00;100412.00;7391082;19;20022;-61
2023/02/01 00:18:44;;;;;;;2.08;0.85;;;;;;;9.84;100.00;100409.06;7388947;19;20467;-61
2023/02/01 00:21:11;;;;;;;1.45;0.55;;;;;;;9.41;100.00;100411.94;7389983;19;20028;-61
2023/02/01 00:23:38;;;;;;;1.35;0.98;;;;;;;9.68;100.00;100407.28;7388201;19;20031;-61
2023/02/01 00:26:11;;;;;;;9.18;1.60;;;;;;;9.11;100.00;100402.31;7393422;19;20015;-61
2023/02/01 00:28:38;;;;;;;0.65;0.35;;;;;;;9.59;100.00;100409.28;7389066;19;20022;-60
2023/02/01 00:31:04;;;;;;;1.20;0.30;;;;;;;10.10;100.00;100415.97;7392012;19;20015;-61
2023/02/01 00:33:32;;;;;;;3.25;0.63;;;;;;;10.31;100.00;100412.34;7394391;19;20044;-62
2023/02/01 00:36:00;;;;;;;0.10;0.10;;;;;;;10.12;100.00;100418.31;7392359;19;20019;-62
2023/02/01 00:38:28;;;;;;;1.98;0.73;;;;;;;9.81;100.00;100410.00;7394952;19;20017;-60
2023/02/01 00:40:55;;;;;;;0.75;0.68;;;;;;;10.28;100.00;100404.94;7388482;19;20714;-62
2023/02/01 00:43:21;;;;;;;0.17;0.17;;;;;;;10.14;100.00;100411.06;7389567;19;20107;-60
2023/02/01 00:45:47;;;;;;;0.55;0.20;;;;;;;10.09;100.00;100403.28;7392298;19;20010;-59
2023/02/01 00:48:13;;;;;;;0.10;0.10;;;;;;;10.00;100.00;100411.63;7391843;19;20015;-60
2023/02/01 00:50:42;;;;;;;0.60;0.50;;;;;;;9.91;100.00;100400.47;7392955;19;20398;-60
2023/02/01 00:53:10;;;;;;;0.90;0.43;;;;;;;9.83;100.00;100407.53;7388185;19;20015;-62
2023/02/01 00:55:37;;;;;;;12.57;0.82;;;;;;;10.46;100.00;100407.00;7390740;19;20017;-60
2023/02/01 00:58:05;;;;;;;0.30;0.20;;;;;;;10.18;100.00;100397.03;7389849;19;20086;-60
2023/02/01 01:00:33;;;;;;;4.03;0.25;;;;;;;10.56;100.00;100398.19;7391459;19;20013;-60
2023/02/01 01:02:59;;;;;;;1.10;0.50;;;;;;;10.68;100.00;100388.91;7397729;19;20716;-60
2023/02/01 01:05:27;;;;;;;12.65;1.05;;;;;;;10.66;100.00;100376.69;7393516;19;20475;-60
2023/02/01 01:07:53;;;;;;;1.05;0.15;;;;;;;10.44;100.00;100393.53;7394772;19;20019;-60
2023/02/01 01:10:19;;;;;;;8.15;0.40;;;;;;;11.51;100.00;100393.16;7394927;19;20011;-60
2023/02/01 01:12:46;;;;;;;3.30;0.43;;;;;;;10.55;100.00;100402.19;7397422;19;20458;-60
2023/02/01 01:15:12;;;;;;;0.65;0.55;;;;;;;10.14;100.00;100394.38;7394245;19;20011;-60
2023/02/01 01:17:38;;;;;;;2.15;0.93;;;;;;;10.72;100.00;100377.59;7394159;19;20042;-60
2023/02/01 01:20:05;;;;;;;1.00;0.32;;;;;;;11.36;100.00;100367.19;7393972;19;20132;-60
2023/02/01 01:22:31;;;;;;;0.10;0.10;;;;;;;11.74;100.00;100367.38;7399574;19;20013;-61
2023/02/01 01:24:58;;;;;;;3.50;1.27;;;;;;;10.80;100.00;100380.88;7395762;19;20070;-61
2023/02/01 01:27:24;;;;;;;5.88;1.13;;;;;;;10.41;100.00;100380.53;7395277;19;20007;-60
2023/02/01 01:29:51;;;;;;;10.70;0.38;;;;;;;10.29;100.00;100378.63;7395143;19;20022;-60
2023/02/01 01:32:18;;;;;;;0.30;0.20;;;;;;;10.58;100.00;100381.00;7398547;19;20017;-60
2023/02/01 01:34:44;;;;;;;0.35;0.22;;;;;;;10.42;100.00;100375.72;7396237;19;20019;-60
2023/02/01 01:37:11;;;;;;;0.20;0.20;;;;;;;10.20;100.00;100381.41;7395131;19;20014;-60
2023/02/01 01:39:37;;;;;;;0.52;0.08;;;;;;;9.92;100.00;100382.50;7400354;19;20010;-60
2023/02/01 01:42:03;;;;;;;19.42;0.95;;;;;;;10.34;100.00;100383.59;7400517;19;20638;-60
2023/02/01 01:45:05;;;;;;;0.75;0.70;;;;;;;10.94;100.00;100377.44;7394107;19;20010;-60
2023/02/01 01:47:41;;;;;;;0.60;0.60;;;;;;;11.90;100.00;100380.97;7398272;19;20056;-60
2023/02/01 01:50:12;;;;;;;9.07;0.85;;;;;;;12.26;100.00;100368.09;7395807;19;20023;-60
2023/02/01 01:52:41;;;;;;;3.05;0.93;;;;;;;12.18;100.00;100374.00;7396752;19;20015;-60
2023/02/01 01:55:09;;;;;;;5.32;0.55;;;;;;;12.47;100.00;100376.16;7394212;19;20003;-61
2023/02/01 01:57:41;;;;;;;4.47;0.25;;;;;;;11.62;100.00;100382.28;7397186;19;20041;-60
2023/02/01 02:00:16;;;;;;;11.00;0.38;;;;;;;12.19;100.00;100369.97;7400194;19;20500;-60
2023/02/01 02:02:53;;;;;;;6.45;1.08;;;;;;;12.56;100.00;100372.53;7399566;19;20014;-60
2023/02/01 02:05:20;;;;;;;1.10;0.47;;;;;;;12.78;99.00;100384.94;7394218;19;20018;-60
2023/02/01 02:07:49;;;;;;;3.95;0.80;;;;;;;13.40;94.96;100382.06;7393734;19;20382;-60
2023/02/01 02:10:16;;;;;;;5.28;0.43;;;;;;;13.78;89.04;100388.78;7392799;19;20038;-61
2023/02/01 02:12:46;;;;;;;5.63;1.92;;;;;;;12.48;94.88;100386.09;7396194;19;20010;-60
2023/02/01 02:15:15;;;;;;;1.95;0.50;;;;;;;12.17;98.41;100380.84;7397162;19;20111;-60
2023/02/01 02:18:23;;;;;;;0.10;0.03;;;;;;;12.63;95.33;100377.75;7394335;19;20010;-66
2023/02/01 02:21:09;;;;;;;0.13;0.13;;;;;;;12.44;95.53;100379.13;7394259;19;20044;-61
2023/02/01 02:24:04;;;;;;;1.00;0.40;;;;;;;12.75;93.08;100377.53;7395431;19;20017;-61
2023/02/01 02:27:24;;;;;;;0.80;0.55;;;;;;;13.08;90.59;100371.81;7393340;19;20075;-62
2023/02/01 02:30:21;;;;;;;0.20;0.10;;;;;;;12.84;90.82;100374.63;7393030;19;20128;-60
2023/02/01 02:33:32;;;;;;;1.02;0.90;;;;;;;12.01;96.01;100366.50;7394189;19;20010;-61
2023/02/01 02:36:18;;;;;;;0.57;0.55;;;;;;;11.51;100.00;100368.06;7393834;19;20043;-60
2023/02/01 02:39:17;;;;;;;0.30;0.20;;;;;;;12.49;96.84;100372.91;7392471;19;20484;-61
2023/02/01 02:48:24;;;;;;;3.45;1.05;;;;;;;12.86;88.38;100371.38;7392756;19;20018;-61
2023/02/01 03:06:02;;;;;;;12.02;0.30;;;;;;;12.53;100.00;100382.63;7390092;19;20026;-61
2023/02/01 03:08:31;;;;;;;0.30;0.30;;;;;;;12.55;96.00;100387.75;7390003;19;20074;-62
2023/02/01 03:10:59;;;;;;;0.20;0.20;;;;;;;11.18;100.00;100393.06;7392103;19;20013;-62
2023/02/01 03:13:37;;;;;;;0.10;0.05;;;;;;;12.16;100.00;100382.09;7390857;19;20014;-61
2023/02/01 03:16:15;;;;;;;2.70;0.77;;;;;;;12.29;100.00;100364.31;7391180;19;20604;-61
2023/02/01 03:19:11;;;;;;;0.45;0.43;;;;;;;12.34;99.25;100375.63;7391530;19;20019;-60
2023/02/01 03:21:41;;;;;;;0.50;0.47;;;;;;;13.32;93.21;100369.72;7392988;19;20010;-61
2023/02/01 03:24:34;;;;;;;8.33;0.57;;;;;;;13.51;91.16;100371.06;7393122;19;20082;-61
2023/02/01 03:27:11;;;;;;;0.38;0.20;;;;;;;13.64;87.76;100360.34;7393332;19;20319;-61
2023/02/01 03:29:46;;;;;;;0.10;0.10;;;;;;;13.17;90.52;100362.56;7391492;19;20024;-60
2023/02/01 03:32:12;;;;;;;0.32;0.30;;;;;;;12.78;94.36;100364.59;7394201;19;20050;-61
2023/02/01 03:34:39;;;;;;;5.32;0.65;;;;;;;12.52;95.25;100374.72;7393262;19;20014;-60
2023/02/01 03:37:10;;;;;;;0.93;0.40;;;;;;;12.04;94.32;100385.13;7391428;19;20014;-61
2023/02/01 03:39:38;;;;;;;0.13;0.10;;;;;;;11.33;100.00;100370.91;7392842;19;20019;-61
2023/02/01 03:42:13;;;;;;;0.40;0.35;;;;;;;13.29;95.55;100362.28;7394529;19;20085;-60
2023/02/01 03:44:48;;;;;;;4.78;0.80;;;;;;;13.10;92.25;100358.13;7394304;19;20015;-60
2023/02/01 03:47:21;;;;;;;1.95;0.68;;;;;;;13.06;92.11;100354.75;7393805;19;20459;-60
2023/02/01 03:50:05;;;;;;;0.10;0.10;;;;;;;12.84;92.75;100357.84;7395277;19;20509;-60
2023/02/01 03:52:44;;;;;;;0.77;0.30;;;;;;;11.92;94.89;100364.53;7393209;19;20038;-61
2023/02/01 03:55:16;;;;;;;0.20;0.10;;;;;;;11.45;100.00;100353.22;7392831;19;20011;-61
2023/02/01 03:57:59;;;;;;;0.20;0.20;;;;;;;11.63;100.00;100350.34;7392313;19;20014;-60
2023/02/01 04:00:27;;;;;;;4.20;0.40;;;;;;;14.20;88.45;100355.59;7393355;19;20015;-60
2023/02/01 04:02:55;;;;;;;12.13;0.80;;;;;;;15.05;81.67;100343.66;7397224;19;20471;-61
2023/02/01 04:05:21;;;;;;;6.10;0.77;;;;;;;14.33;81.82;100342.03;7394419;19;20029;-61
2023/02/01 04:07:54;;;;;;;0.10;0.05;;;;;;;14.22;79.84;100339.84;7392263;19;20106;-61
2023/02/01 04:10:21;;;;;;;12.25;0.80;;;;;;;14.03;80.69;100338.56;7391819;19;20459;-60
2023/02/01 04:12:47;;;;;;;0.10;0.10;;;;;;;12.99;86.87;100341.13;7397832;19;20384;-61
2023/02/01 04:15:14;;;;;;;1.85;0.57;;;;;;;11.73;97.00;100349.13;7394326;19;20007;-60
2023/02/01 04:17:40;;;;;;;0.20;0.20;;;;;;;11.91;96.83;100349.03;7393746;19;20039;-61
2023/02/01 04:20:08;;;;;;;4.65;0.63;;;;;;;10.74;100.00;100352.09;7394723;19;20031;-60
2023/02/01 04:22:35;;;;;;;1.75;0.22;;;;;;;10.91;100.00;100351.31;7392905;19;20089;-59
2023/02/01 04:25:05;;;;;;;0.10;0.10;;;;;;;11.28;97.38;100354.81;7393036;19;20482;-60
2023/02/01 04:27:31;;;;;;;0.30;0.30;;;;;;;18.28;78.06;100329.59;7392654;19;20048;-60
2023/02/01 04:29:58;;;;;;;0.10;0.10;;;;;;;13.15;74.47;100342.69;7391277;19;20018;-60
2023/02/01 04:32:24;;;;;;;1.75;0.30;;;;;;;10.43;100.00;100344.66;7389975;19;20400;-60
2023/02/01 04:34:50;;;;;;;0.10;0.00;;;;;;;10.89;100.00;100351.00;7389392;19;20042;-60
2023/02/01 04:37:17;;;;;;;2.58;0.55;;;;;;;10.36;100.00;100349.72;7395927;19;20014;-60
2023/02/01 04:39:43;;;;;;;0.95;0.52;;;;;;;10.24;100.00;100350.66;7398302;19;20039;-59
2023/02/01 04:42:12;;;;;;;9.82;0.40;;;;;;;11.62;100.00;100337.66;7398206;19;20025;-59
2023/02/01 04:44:41;;;;;;;0.10;0.10;;;;;;;12.73;97.35;100323.34;7399507;19;20109;-60
2023/02/01 04:47:07;;;;;;;0.10;0.00;;;;;;;12.98;93.01;100328.38;7395943;19;20041;-60
2023/02/01 04:49:34;;;;;;;9.95;1.17;;;;;;;11.86;100.00;100324.56;7395192;19;20467;-60
2023/02/01 04:52:00;;;;;;;9.07;0.95;;;;;;;12.37;98.90;100329.19;7400317;19;20030;-60
2023/02/01 04:54:27;;;;;;;0.40;0.30;;;;;;;12.73;97.07;100326.16;7398566;19;20014;-60
2023/02/01 04:56:53;;;;;;;0.50;0.30;;;;;;;12.90;95.15;100321.63;7398542;19;20025;-60
2023/02/01 04:59:20;;;;;;;1.10;0.95;;;;;;;13.09;94.23;100328.63;7396159;19;20510;-60
2023/02/01 05:01:46;;;;;;;0.10;0.00;;;;;;;12.13;97.82;100327.19;7398341;19;20022;-60
2023/02/01 05:04:13;;;;;;;0.30;0.30;;;;;;;13.00;94.91;100330.69;7397266;19;20014;-60
2023/02/01 05:06:39;;;;;;;0.45;0.28;;;;;;;13.32;92.54;100329.78;7397293;19;20360;-59
2023/02/01 05:09:05;;;;;;;1.05;0.30;;;;;;;12.51;94.20;100340.44;7395721;19;20019;-60
2023/02/01 05:14:16;;;;;;;3.72;0.40;;;;;;;13.83;89.36;100349.69;7396266;19;20118;-60
2023/02/01 05:16:42;;;;;;;0.10;0.10;;;;;;;14.03;87.49;100351.78;7396666;19;20450;-59
2023/02/01 05:19:09;;;;;;;0.43;0.43;;;;;;;12.88;90.05;100357.69;7395868;19;20015;-59
2023/02/01 05:21:37;;;;;;;1.95;0.20;;;;;;;11.45;100.00;100361.59;7398477;19;20017;-60
2023/02/01 05:24:09;;;;;;;2.53;0.57;;;;;;;11.31;100.00;100351.84;7397478;19;20018;-60
2023/02/01 05:26:38;;;;;;;0.73;0.17;;;;;;;10.07;100.00;100361.22;7396675;19;20416;-60
2023/02/01 05:29:05;;;;;;;0.40;0.40;;;;;;;9.49;100.00;100365.94;7395902;19;20082;-60
2023/02/01 05:31:32;;;;;;;5.50;0.55;;;;;;;10.22;100.00;100362.22;7396465;19;20007;-60
2023/02/01 05:33:58;;;;;;;2.25;0.40;;;;;;;9.51;100.00;100366.25;7396315;19;20349;-60
2023/02/01 05:36:24;;;;;;;3.95;0.22;;;;;;;10.58;100.00;100350.38;7397353;19;20011;-60
2023/02/01 05:38:50;;;;;;;13.10;0.82;;;;;;;11.88;100.00;100349.97;7397320;19;20022;-60
2023/02/01 05:41:17;;;;;;;1.45;0.82;;;;;;;12.07;100.00;100340.25;7397435;19;20028;-60
2023/02/01 05:43:43;;;;;;;5.43;0.45;;;;;;;10.41;100.00;100352.69;7397331;19;20078;-59
2023/02/01 05:46:12;;;;;;;1.00;0.45;;;;;;;10.21;100.00;100346.78;7401147;19;20035;-60
2023/02/01 05:48:41;;;;;;;0.38;0.28;;;;;;;10.31;100.00;100353.16;7392956;19;20468;-60
2023/02/01 05:51:08;;;;;;;5.05;1.10;;;;;;;10.13;100.00;100348.31;7394200;19;20029;-60
2023/02/01 05:53:35;;;;;;;1.75;0.40;;;;;;;11.69;100.00;100348.53;7395177;19;20023;-60
2023/02/01 05:56:01;;;;;;;0.30;0.30;;;;;;;11.44;100.00;100332.91;7394812;19;20015;-60
2023/02/01 05:58:27;;;;;;;0.88;0.75;;;;;;;13.71;100.00;100316.44;7396392;19;20089;-59
2023/02/01 06:00:53;;;;;;;0.40;0.40;;;;;;;14.89;83.49;100321.81;7394266;19;20010;-60
2023/02/01 06:03:20;;;;;;;0.63;0.57;;;;;;;14.61;87.16;100323.53;7398221;19;20014;-59
2023/02/01 06:05:47;;;;;;;5.65;0.65;;;;;;;12.94;96.67;100333.41;7392992;19;20434;-61
2023/02/01 06:08:14;;;;;;;1.65;0.73;;;;;;;11.49;100.00;100328.72;7392779;19;20007;-59
2023/02/01 06:10:40;;;;;;;1.77;0.52;;;;;;;11.65;100.00;100322.75;7393659;19;20010;-59
2023/02/01 06:13:07;;;;;;;0.10;0.10;;;;;;;12.07;100.00;100339.47;7394560;19;20440;-59
2023/02/01 06:15:33;;;;;;;0.30;0.30;;;;;;;11.28;100.00;100332.50;7393824;19;20102;-59
2023/02/01 06:17:59;;;;;;;0.20;0.20;;;;;;;20.35;72.90;100315.03;7393062;19;20039;-59
2023/02/01 06:20:26;;;;;;;2.83;0.75;;;;;;;22.38;52.06;100312.34;7391368;19;20018;-59
2023/02/01 06:22:52;;;;;;;1.30;0.10;;;;;;;11.88;94.08;100336.03;7393513;19;20010;-60
2023/02/01 06:25:19;;;;;;;1.85;0.20;;;;;;;10.54;100.00;100342.19;7393653;19;20018;-60
2023/02/01 06:27:45;;;;;;;0.30;0.30;;;;;;;10.15;100.00;100334.72;7391564;19;20495;-59
2023/02/01 06:30:14;;;;;;;0.65;0.65;;;;;;;10.96;100.00;100344.34;7394142;19;20010;-59
2023/02/01 06:32:41;;;;;;;0.10;0.10;;;;;;;12.00;100.00;100340.59;7396249;19;20014;-59
2023/02/01 06:35:15;;;;;;;8.00;0.45;;;;;;;11.63;100.00;100339.19;7393565;19;20076;-59
2023/02/01 06:37:42;;;;;;;2.00;0.40;;;;;;;11.06;100.00;100348.66;7391292;19;20018;-59
2023/02/01 06:40:09;;;;;;;29.27;1.95;;;;;;;10.25;100.00;100344.63;7393564;19;20014;-61
2023/02/01 06:42:35;;;;;;;3.63;1.42;;;;;;;10.57;100.00;100337.69;7395679;19;20074;-60
2023/02/01 06:45:02;;;;;;;1.65;0.50;;;;;;;11.94;100.00;100350.09;7393067;19;20014;-60
2023/02/01 06:47:28;;;;;;;0.98;0.98;;;;;;;12.35;100.00;100343.66;7393944;19;20132;-60
2023/02/01 06:49:54;;;;;;;0.10;0.10;;;;;;;12.10;100.00;100339.31;7390023;19;20029;-60
2023/02/01 06:52:20;;;;;;;0.38;0.35;;;;;;;12.67;99.24;100342.00;7393275;19;20031;-60
2023/02/01 06:54:47;;;;;;;0.28;0.28;;;;;;;11.27;100.00;100356.81;7391245;19;20023;-59
2023/02/01 06:57:14;;;;;;;1.80;0.32;;;;;;;10.98;100.00;100350.22;7390363;19;20470;-60
2023/02/01 06:59:40;;;;;;;0.35;0.25;;;;;;;10.56;100.00;100359.22;7392063;19;20021;-60
2023/02/01 07:02:11;;;;;;;4.40;0.95;;;;;;;10.75;100.00;100354.41;7394883;19;20034;-59
2023/02/01 07:04:37;;;;;;;2.08;1.42;;;;;;;12.35;100.00;100348.44;7391400;19;20020;-59
2023/02/01 07:07:03;;;;;;;0.20;0.20;;;;;;;11.66;100.00;100343.06;7392035;19;20014;-60
2023/02/01 07:09:30;;;;;;;2.33;0.57;;;;;;;10.63;100.00;100341.41;7389051;19;20042;-60
2023/02/01 07:11:56;;;;;;;4.05;0.50;;;;;;;10.52;100.00;100353.03;7394086;19;20454;-60
2023/02/01 07:14:22;;;;;;;6.05;0.57;;;;;;;10.57;100.00;100349.59;7389817;19;20011;-60
2023/02/01 07:16:48;;;;;;;0.10;0.10;;;;;;;10.92;100.00;100346.50;7390495;19;20600;-60
2023/02/01 07:19:14;;;;;;;1.13;0.55;;;;;;;10.91;100.00;100344.97;7391597;19;20029;-60
2023/02/01 07:21:41;;;;;;;4.75;0.60;;;;;;;10.72;100.00;100335.06;7393194;19;20042;-60
2023/02/01 07:24:07;;;;;;;0.25;0.20;;;;;;;10.83;100.00;100335.38;7389596;19;20017;-60
2023/02/01 07:26:33;;;;;;;3.15;0.68;;;;;;;10.32;100.00;100341.53;7391906;19;20014;-60
2023/02/01 07:29:00;;;;;;;0.30;0.25;;;;;;;10.14;100.00;100329.59;7390270;19;20069;-60
2023/02/01 07:31:28;;;;;;;1.55;0.40;;;;;;;10.29;100.00;100325.75;7390894;19;20014;-60
2023/02/01 07:33:56;;;;;;;0.75;0.20;;;;;;;10.64;100.00;100335.38;7392115;19;20014;-60
2023/02/01 07:36:22;;;;;;;1.65;0.50;;;;;;;11.33;100.00;100320.69;7391232;19;20007;-60
2023/02/01 07:38:50;;;;;;;3.97;1.20;;;;;;;11.46;100.00;100329.66;7389847;19;20010;-60
2023/02/01 07:41:17;;;;;;;4.47;0.75;;;;;;;11.56;100.00;100320.03;7392949;19;20018;-60
2023/02/01 07:43:44;;;;;;;1.50;0.93;;;;;;;10.99;100.00;100321.09;7390666;19;20646;-60
2023/02/01 07:46:11;;;;;;;0.57;0.47;;;;;;;11.33;100.00;100326.28;7393701;19;20040;-59
2023/02/01 07:48:38;;;;;;;0.75;0.63;;;;;;;11.23;100.00;100321.97;7389722;19;20042;-59
2023/02/01 07:51:13;;;;;;;3.67;0.75;;;;;;;11.19;100.00;100326.94;7391695;19;20523;-60
2023/02/01 07:53:41;;;;;;;15.88;1.08;;;;;;;11.64;100.00;100328.81;7392628;19;20035;-60
2023/02/01 07:56:13;;;;;;;6.22;0.30;;;;;;;11.11;100.00;100320.16;7390056;19;20346;-61
2023/02/01 07:58:40;;;;;;;1.00;0.55;;;;;;;11.11;100.00;100309.00;7390544;19;20016;-60
2023/02/01 08:01:20;;;;;;;12.27;1.23;;;;;;;10.68;100.00;100303.81;7391282;19;20452;-60
2023/02/01 08:03:48;;;;;;;0.10;0.08;;;;;;;11.19;100.00;100304.66;7391255;19;20047;-61
2023/02/01 08:06:15;;;;;;;4.38;0.90;;;;;;;11.25;100.00;100297.19;7390162;19;20034;-61
2023/02/01 08:08:44;;;;;;;0.55;0.30;;;;;;;10.96;100.00;100300.50;7389804;19;20016;-61
2023/02/01 08:11:11;;;;;;;1.45;0.90;;;;;;;11.47;100.00;100294.94;7390384;19;20370;-62
2023/02/01 08:13:37;;;;;;;1.75;0.82;;;;;;;11.52;100.00;100302.66;7391056;19;20030;-60
2023/02/01 08:16:05;;;;;;;3.83;0.28;;;;;;;11.32;100.00;100299.66;7398241;19;20017;-60
2023/02/01 08:18:33;;;;;;;2.50;0.73;;;;;;;12.17;100.00;100287.94;7392453;19;20083;-60
2023/02/01 08:21:06;;;;;;;0.70;0.32;;;;;;;11.61;100.00;100282.34;7389521;19;20499;-61
2023/02/01 08:23:37;;;;;;;1.95;1.55;;;;;;;12.28;100.00;100267.84;7391474;19;20023;-60
2023/02/01 08:26:14;;;;;;;5.15;1.17;;;;;;;12.91;100.00;100264.47;7390733;19;20015;-61
2023/02/01 08:28:48;;;;;;;0.13;0.13;;;;;;;12.54;100.00;100271.66;7391719;19;20015;-61
2023/02/01 08:31:17;;;;;;;1.95;0.95;;;;;;;11.46;100.00;100281.47;7389630;19;20011;-61
2023/02/01 08:33:49;;;;;;;0.43;0.43;;;;;;;10.76;100.00;100289.09;7390655;19;20014;-61
2023/02/01 08:36:16;;;;;;;20.00;1.35;;;;;;;10.31;100.00;100286.34;7391047;19;20007;-61
2023/02/01 08:38:42;;;;;;;0.70;0.70;;;;;;;10.48;100.00;100276.44;7391185;19;20455;-61
2023/02/01 08:41:18;;;;;;;12.32;1.38;;;;;;;10.52;100.00;100277.81;7390442;19;20049;-61
2023/02/01 08:43:45;;;;;;;1.17;0.40;;;;;;;10.15;100.00;100279.06;7392647;19;20017;-61
2023/02/01 08:46:12;;;;;;;2.33;0.43;;;;;;;11.26;100.00;100277.19;7392441;19;20015;-61
2023/02/01 08:48:39;;;;;;;1.13;1.10;;;;;;;11.24;100.00;100276.16;7389501;19;20034;-61
2023/02/01 08:51:08;;;;;;;0.35;0.35;;;;;;;10.88;100.00;100268.63;7390872;19;20017;-62
2023/02/01 08:53:35;;;;;;;0.10;0.10;;;;;;;10.37;100.00;100279.66;7391241;19;20034;-61
2023/02/01 08:56:03;;;;;;;1.23;0.20;;;;;;;11.50;100.00;100274.47;7389805;19;20376;-61
2023/02/01 08:58:29;;;;;;;1.08;0.50;;;;;;;13.46;100.00;100285.00;7390783;19;20007;-61
2023/02/01 09:00:56;;;;;;;1.95;0.20;;;;;;;12.78;100.00;100258.38;7389822;19;20011;-61
2023/02/01 09:03:22;;;;;;;0.30;0.25;;;;;;;12.82;100.00;100264.56;7393121;19;20014;-61
2023/02/01 09:05:49;;;;;;;0.40;0.13;;;;;;;12.74;100.00;100263.41;7388386;19;20014;-61
2023/02/01 09:08:16;;;;;;;1.85;0.75;;;;;;;13.37;100.00;100271.13;7389811;19;20015;-60
2023/02/01 09:10:42;;;;;;;0.38;0.20;;;;;;;14.85;100.00;100268.00;7389248;19;20011;-60
2023/02/01 09:13:09;;;;;;;6.72;1.25;;;;;;;13.38;100.00;100267.06;7390047;19;20451;-60
2023/02/01 09:15:35;;;;;;;11.13;1.88;;;;;;;14.47;100.00;100264.78;7393818;19;20011;-60
2023/02/01 09:18:02;;;;;;;1.27;0.10;;;;;;;15.81;91.49;100252.16;7391093;19;20002;-60
2023/02/01 09:20:29;;;;;;;0.25;0.25;;;;;;;14.80;97.46;100254.69;7387956;19;20015;-61
2023/02/01 09:22:56;;;;;;;3.60;0.70;;;;;;;15.25;90.90;100260.66;7396738;19;20010;-61
2023/02/01 09:25:23;;;;;;;0.60;0.20;;;;;;;13.87;100.00;100262.69;7396178;19;20014;-62
2023/02/01 09:27:50;;;;;;;1.45;1.08;;;;;;;12.67;100.00;100272.91;7396493;19;20067;-61
2023/02/01 09:30:17;;;;;;;0.38;0.38;;;;;;;12.13;100.00;100276.94;7396846;19;20011;-61
2023/02/01 09:32:43;;;;;;;0.17;0.17;;;;;;;11.75;100.00;100268.50;7395560;19;20090;-60
2023/02/01 09:35:11;;;;;;;0.20;0.20;;;;;;;12.25;100.00;100260.41;7397322;19;20011;-60
2023/02/01 09:37:38;;;;;;;0.22;0.20;;;;;;;12.02;100.00;100254.38;7396516;19;20066;-60
2023/02/01 09:40:05;;;;;;;0.47;0.47;;;;;;;11.49;100.00;100261.78;7396724;19;20014;-61
2023/02/01 09:42:53;;;;;;;0.38;0.17;;;;;;;12.39;100.00;100254.84;7396912;19;20042;-61
2023/02/01 09:45:49;;;;;;;0.20;0.10;;;;;;;12.46;100.00;100264.88;7397571;19;20018;-60
2023/02/01 09:48:22;;;;;;;0.30;0.20;;;;;;;11.88;100.00;100260.69;7394477;19;20014;-61
2023/02/01 09:50:57;;;;;;;2.63;1.05;;;;;;;11.42;100.00;100262.91;7394462;19;20014;-61
2023/02/01 09:53:33;;;;;;;7.00;0.85;;;;;;;11.65;100.00;100261.38;7395299;19;20364;-61
2023/02/01 09:56:06;;;;;;;1.27;0.50;;;;;;;12.41;100.00;100274.69;7394168;19;20466;-60
2023/02/01 09:58:56;;;;;;;0.25;0.20;;;;;;;13.34;100.00;100263.69;7394564;19;20045;-61
2023/02/01 10:01:26;;;;;;;0.20;0.20;;;;;;;12.57;100.00;100253.94;7395867;19;20010;-61
2023/02/01 10:04:02;;;;;;;3.95;0.52;;;;;;;12.57;100.00;100265.09;7395306;19;20529;-61
2023/02/01 10:06:48;;;;;;;6.13;0.28;;;;;;;11.41;100.00;100255.00;7395078;19;20006;-61
2023/02/01 10:09:33;;;;;;;0.75;0.13;;;;;;;11.89;100.00;100262.19;7394212;19;20050;-60
2023/02/01 10:12:41;;;;;;;0.70;0.20;;;;;;;11.56;100.00;100255.09;7397711;19;20015;-60
2023/02/01 10:15:24;;;;;;;0.55;0.30;;;;;;;11.80;100.00;100253.13;7397547;19;20015;-61
2023/02/01 10:18:09;;;;;;;0.38;0.38;;;;;;;12.03;100.00;100255.16;7396593;19;20752;-61
2023/02/01 10:21:06;;;;;;;0.10;0.10;;;;;;;12.07;100.00;100256.50;7393672;19;20086;-61
2023/02/01 10:23:45;;;;;;;0.82;0.82;;;;;;;12.23;100.00;100246.94;7394473;19;20467;-61
2023/02/01 10:26:17;;;;;;;0.20;0.20;;;;;;;12.60;100.00;100266.97;7393562;19;20003;-61
2023/02/01 10:28:48;;;;;;;1.17;0.52;;;;;;;13.69;100.00;100246.91;7394807;19;20017;-62
2023/02/01 10:31:15;;;;;;;3.08;1.25;;;;;;;13.26;100.00;100259.75;7396401;19;20039;-61
2023/02/01 10:33:57;;;;;;;2.50;0.65;;;;;;;14.15;100.00;100253.41;7393508;19;20014;-61
2023/02/01 10:36:30;;;;;;;;;;;;;;;15.72;100.00;100248.81;7397446;19;20022;-61
2023/02/01 10:39:02;;;;;;;0.85;0.40;;;;;;;13.46;100.00;100254.25;7395266;19;19919;-61
2023/02/01 10:41:35;;;;;;;0.30;0.15;;;;;;;14.00;100.00;100265.94;7394719;19;20018;-61
2023/02/01 10:44:11;;;;;;;1.38;0.05;;;;;;;16.36;99.95;100256.53;7395020;19;20109;-61
2023/02/01 10:46:37;;;;;;;0.20;0.20;;;;;;;15.94;96.06;100254.53;7396188;19;20006;-62
2023/02/01 10:49:06;;;;;;;1.27;0.20;;;;;;;14.50;100.00;100261.75;7392159;19;20487;-61
2023/02/01 10:52:05;;;;;;;0.20;0.20;;;;;;;15.22;100.00;100256.06;7392691;19;20340;-61
2023/02/01 10:54:37;;;;;;;0.45;0.45;;;;;;;14.22;100.00;100271.81;7395592;19;20029;-61
2023/02/01 10:57:09;;;;;;;3.40;0.22;;;;;;;15.27;100.00;100269.38;7392352;19;20018;-62
2023/02/01 10:59:37;;;;;;;0.47;0.47;;;;;;;15.10;100.00;100272.81;7393255;19;20022;-62
2023/02/01 11:02:34;;;;;;;3.50;1.45;;;;;;;14.08;100.00;100283.84;7394799;19;20010;-62
2023/02/01 11:05:04;;;;;;;3.47;0.57;;;;;;;13.79;100.00;100281.16;7392912;19;20018;-63
2023/02/01 11:07:32;;;;;;;7.65;0.80;;;;;;;14.08;100.00;100272.66;7392955;19;20015;-63
2023/02/01 11:09:59;;;;;;;2.15;0.88;;;;;;;14.09;100.00;100277.78;7390478;19;20038;-62
2023/02/01 11:12:32;;;;;;;3.28;1.10;;;;;;;15.90;100.00;100271.63;7394395;19;20446;-62
2023/02/01 11:15:21;;;;;;;4.57;0.30;;;;;;;15.10;100.00;100278.41;7395275;19;20074;-63
2023/02/01 11:17:54;;;;;;;3.35;0.40;;;;;;;13.90;100.00;100289.72;7394512;19;20002;-64
2023/02/01 11:20:39;;;;;;;1.80;0.63;;;;;;;14.04;100.00;100280.50;7390040;19;20321;-63
2023/02/01 11:23:14;;;;;;;16.00;1.23;;;;;;;13.36;100.00;100286.34;7394581;19;20032;-63
2023/02/01 11:25:55;;;;;;;3.88;1.40;;;;;;;17.60;92.86;100276.69;7389027;19;20018;-63
2023/02/01 11:28:33;;;;;;;2.65;1.20;;;;;;;19.47;80.15;100286.34;7386244;19;20010;-62
2023/02/01 11:31:04;;;;;;;1.23;0.38;;;;;;;14.69;100.00;100288.19;7388597;19;19999;-62
2023/02/01 11:33:43;;;;;;;0.20;0.10;;;;;;;13.77;100.00;100283.69;7389690;19;20014;-62
2023/02/01 11:36:17;;;;;;;0.85;0.35;;;;;;;14.06;100.00;100286.38;7389997;19;20020;-62
2023/02/01 11:39:08;;;;;;;2.55;0.55;;;;;;;14.20;100.00;100285.56;7390882;19;20475;-61
2023/02/01 11:41:40;;;;;;;;;;;;;;;15.64;100.00;100306.69;7391313;19;20022;-63
2023/02/01 11:44:19;;;;;;;;;;;;;;;13.42;100.00;100276.06;7391469;19;20009;-63
2023/02/01 11:46:45;;;;;;;0.10;0.00;;;;;;;13.36;100.00;100296.78;7386458;19;19970;-63
2023/02/01 11:49:26;;;;;;;1.00;0.43;;;;;;;12.58;100.00;100300.19;7387107;19;20022;-63
2023/02/01 11:52:01;;;;;;;;;;;;;;;13.70;100.00;100318.44;7393326;19;20021;-63
2023/02/01 11:55:02;;;;;;;7.63;0.50;;;;;;;14.40;100.00;100294.00;7391216;19;19922;-63
2023/02/01 11:57:43;;;;;;;10.25;0.88;;;;;;;21.21;91.23;100287.38;7389938;19;20482;-63
2023/02/01 12:00:22;;;;;;;3.72;0.30;;;;;;;22.11;74.60;100285.28;7388957;19;20250;-62
2023/02/01 12:03:22;;;;;;;0.13;0.03;;;;;;;20.07;86.75;100292.72;7394623;19;20017;-62